Terminal Aerodrome Forecast
Issued by NWS

Current Version | Previous Version | Text Only | Print | Product List | Glossary On
Versions: 1 2 3 4 5 6 7 8 9 10 11 12 13 14 15 16 17 18 19 20 21 22
000
FTUS41 KALY 230738 AAB
TAFPSF
TAF AMD
KPSF 230738Z 2308/2406 00000KT 6SM BR SCT002 BKN120
      TEMPO 2308/2311 1/2SM FG BKN002
     FM231300 06006KT P6SM BKN110
     FM232100 12005KT P6SM BKN050 PROB30 2403/2406 4SM -SHRA BR
      BKN025 OVC040=

USA.gov is the U.S. government's official web portal to all federal, state and local government web resources and services.